sensor_id;sensor_type;location;lat;lon;timestamp;P1;durP1;ratioP1;P2;durP2;ratioP2
53521;SDS011;39398;48.382;9.802;2022-09-03T00:01:05;2.60;;;2.20;;
53521;SDS011;39398;48.382;9.802;2022-09-03T00:02:15;5.10;;;2.50;;
53521;SDS011;39398;48.382;9.802;2022-09-03T00:03:23;4.50;;;2.30;;
53521;SDS011;39398;48.382;9.802;2022-09-03T00:04:31;2.75;;;2.17;;
53521;SDS011;39398;48.382;9.802;2022-09-03T00:05:39;6.45;;;2.47;;
53521;SDS011;39398;48.382;9.802;2022-09-03T00:06:48;2.83;;;2.10;;
53521;SDS011;39398;48.382;9.802;2022-09-03T00:07:55;2.95;;;2.30;;
53521;SDS011;39398;48.382;9.802;2022-09-03T00:09:02;4.57;;;2.47;;
53521;SDS011;39398;48.382;9.802;2022-09-03T00:10:10;3.90;;;2.40;;
53521;SDS011;39398;48.382;9.802;2022-09-03T00:11:17;6.15;;;2.30;;
53521;SDS011;39398;48.382;9.802;2022-09-03T00:12:22;3.83;;;2.08;;
53521;SDS011;39398;48.382;9.802;2022-09-03T00:13:28;2.75;;;1.92;;
53521;SDS011;39398;48.382;9.802;2022-09-03T00:14:34;5.55;;;2.08;;
53521;SDS011;39398;48.382;9.802;2022-09-03T00:15:38;5.13;;;2.15;;
53521;SDS011;39398;48.382;9.802;2022-09-03T00:16:42;3.00;;;2.30;;
53521;SDS011;39398;48.382;9.802;2022-09-03T00:17:50;6.82;;;2.67;;
53521;SDS011;39398;48.382;9.802;2022-09-03T00:18:55;2.85;;;2.28;;
53521;SDS011;39398;48.382;9.802;2022-09-03T00:20:00;5.45;;;2.10;;
53521;SDS011;39398;48.382;9.802;2022-09-03T00:21:06;2.28;;;2.00;;
53521;SDS011;39398;48.382;9.802;2022-09-03T00:22:12;4.57;;;2.25;;
53521;SDS011;39398;48.382;9.802;2022-09-03T00:23:18;5.75;;;2.28;;
53521;SDS011;39398;48.382;9.802;2022-09-03T00:24:22;2.90;;;2.00;;
53521;SDS011;39398;48.382;9.802;2022-09-03T00:25:32;6.32;;;2.50;;
53521;SDS011;39398;48.382;9.802;2022-09-03T00:26:41;5.40;;;2.47;;
53521;SDS011;39398;48.382;9.802;2022-09-03T00:27:46;5.75;;;2.50;;
53521;SDS011;39398;48.382;9.802;2022-09-03T00:28:53;6.43;;;2.20;;
53521;SDS011;39398;48.382;9.802;2022-09-03T00:30:00;7.13;;;2.47;;
53521;SDS011;39398;48.382;9.802;2022-09-03T00:31:06;3.03;;;2.33;;
53521;SDS011;39398;48.382;9.802;2022-09-03T00:32:12;4.88;;;2.33;;
53521;SDS011;39398;48.382;9.802;2022-09-03T00:33:19;4.82;;;2.42;;
53521;SDS011;39398;48.382;9.802;2022-09-03T00:34:31;5.38;;;2.50;;
53521;SDS011;39398;48.382;9.802;2022-09-03T00:35:40;3.42;;;2.50;;
53521;SDS011;39398;48.382;9.802;2022-09-03T00:36:45;2.63;;;2.28;;
53521;SDS011;39398;48.382;9.802;2022-09-03T00:37:46;3.88;;;2.38;;
53521;SDS011;39398;48.382;9.802;2022-09-03T00:38:48;2.75;;;2.50;;
53521;SDS011;39398;48.382;9.802;2022-09-03T00:39:50;3.53;;;2.35;;
53521;SDS011;39398;48.382;9.802;2022-09-03T00:40:55;4.60;;;2.50;;
53521;SDS011;39398;48.382;9.802;2022-09-03T00:42:08;7.22;;;2.72;;
53521;SDS011;39398;48.382;9.802;2022-09-03T00:43:23;4.38;;;2.38;;
53521;SDS011;39398;48.382;9.802;2022-09-03T00:44:47;2.50;;;2.30;;
53521;SDS011;39398;48.382;9.802;2022-09-03T00:46:04;5.80;;;2.83;;
53521;SDS011;39398;48.382;9.802;2022-09-03T00:47:14;3.33;;;2.47;;
53521;SDS011;39398;48.382;9.802;2022-09-03T00:48:21;2.60;;;2.40;;
53521;SDS011;39398;48.382;9.802;2022-09-03T00:49:31;5.18;;;2.58;;
53521;SDS011;39398;48.382;9.802;2022-09-03T00:50:48;4.32;;;2.45;;
53521;SDS011;39398;48.382;9.802;2022-09-03T00:52:02;7.03;;;2.72;;
53521;SDS011;39398;48.382;9.802;2022-09-03T00:53:16;5.13;;;2.75;;
53521;SDS011;39398;48.382;9.802;2022-09-03T00:54:25;2.90;;;2.22;;
53521;SDS011;39398;48.382;9.802;2022-09-03T00:55:34;8.00;;;2.60;;
53521;SDS011;39398;48.382;9.802;2022-09-03T00:56:43;2.85;;;2.28;;
53521;SDS011;39398;48.382;9.802;2022-09-03T00:57:54;5.40;;;2.75;;
53521;SDS011;39398;48.382;9.802;2022-09-03T00:59:07;3.13;;;2.90;;
53521;SDS011;39398;48.382;9.802;2022-09-03T01:00:19;2.78;;;2.42;;
53521;SDS011;39398;48.382;9.802;2022-09-03T01:01:23;3.17;;;2.67;;
53521;SDS011;39398;48.382;9.802;2022-09-03T01:02:33;2.38;;;2.17;;
53521;SDS011;39398;48.382;9.802;2022-09-03T01:03:48;2.72;;;2.17;;
53521;SDS011;39398;48.382;9.802;2022-09-03T01:04:57;3.85;;;2.40;;
53521;SDS011;39398;48.382;9.802;2022-09-03T01:07:21;2.72;;;2.47;;
53521;SDS011;39398;48.382;9.802;2022-09-03T01:08:35;2.95;;;2.55;;
53521;SDS011;39398;48.382;9.802;2022-09-03T01:09:52;2.60;;;2.40;;
53521;SDS011;39398;48.382;9.802;2022-09-03T01:11:02;7.07;;;2.28;;
53521;SDS011;39398;48.382;9.802;2022-09-03T01:12:17;3.45;;;2.30;;
53521;SDS011;39398;48.382;9.802;2022-09-03T01:13:28;4.50;;;2.55;;
53521;SDS011;39398;48.382;9.802;2022-09-03T01:14:38;2.80;;;2.50;;
53521;SDS011;39398;48.382;9.802;2022-09-03T01:15:50;5.43;;;2.53;;
53521;SDS011;39398;48.382;9.802;2022-09-03T01:17:05;4.30;;;2.50;;
53521;SDS011;39398;48.382;9.802;2022-09-03T01:18:15;3.80;;;2.45;;
53521;SDS011;39398;48.382;9.802;2022-09-03T01:19:30;3.13;;;2.30;;
53521;SDS011;39398;48.382;9.802;2022-09-03T01:20:51;3.58;;;2.78;;
53521;SDS011;39398;48.382;9.802;2022-09-03T01:22:07;7.28;;;2.42;;
53521;SDS011;39398;48.382;9.802;2022-09-03T01:23:27;3.40;;;2.67;;
53521;SDS011;39398;48.382;9.802;2022-09-03T01:25:10;3.85;;;2.50;;
53521;SDS011;39398;48.382;9.802;2022-09-03T01:26:20;4.57;;;2.53;;
53521;SDS011;39398;48.382;9.802;2022-09-03T01:27:31;4.10;;;2.70;;
53521;SDS011;39398;48.382;9.802;2022-09-03T01:28:45;3.63;;;2.80;;
53521;SDS011;39398;48.382;9.802;2022-09-03T01:29:58;3.75;;;2.38;;
53521;SDS011;39398;48.382;9.802;2022-09-03T01:31:06;4.88;;;2.65;;
53521;SDS011;39398;48.382;9.802;2022-09-03T01:32:18;4.43;;;2.70;;
53521;SDS011;39398;48.382;9.802;2022-09-03T01:33:26;3.38;;;3.00;;
53521;SDS011;39398;48.382;9.802;2022-09-03T01:34:41;3.72;;;2.50;;
53521;SDS011;39398;48.382;9.802;2022-09-03T01:35:49;3.80;;;2.47;;
53521;SDS011;39398;48.382;9.802;2022-09-03T01:36:58;5.28;;;2.80;;
53521;SDS011;39398;48.382;9.802;2022-09-03T01:38:11;3.05;;;2.75;;
53521;SDS011;39398;48.382;9.802;2022-09-03T01:39:25;5.05;;;2.90;;
53521;SDS011;39398;48.382;9.802;2022-09-03T01:40:34;5.32;;;2.40;;
53521;SDS011;39398;48.382;9.802;2022-09-03T01:41:46;3.67;;;2.63;;
53521;SDS011;39398;48.382;9.802;2022-09-03T01:43:04;4.25;;;2.63;;
53521;SDS011;39398;48.382;9.802;2022-09-03T01:44:19;3.50;;;2.50;;
53521;SDS011;39398;48.382;9.802;2022-09-03T01:45:32;3.47;;;2.90;;
53521;SDS011;39398;48.382;9.802;2022-09-03T01:48:20;5.25;;;2.90;;
53521;SDS011;39398;48.382;9.802;2022-09-03T01:49:33;3.65;;;2.78;;
53521;SDS011;39398;48.382;9.802;2022-09-03T01:50:45;18.15;;;2.88;;
53521;SDS011;39398;48.382;9.802;2022-09-03T01:51:54;3.25;;;2.80;;
53521;SDS011;39398;48.382;9.802;2022-09-03T01:53:05;2.78;;;2.47;;
53521;SDS011;39398;48.382;9.802;2022-09-03T01:54:19;2.88;;;2.58;;
53521;SDS011;39398;48.382;9.802;2022-09-03T01:55:37;3.55;;;2.53;;
53521;SDS011;39398;48.382;9.802;2022-09-03T01:57:00;3.22;;;2.47;;
53521;SDS011;39398;48.382;9.802;2022-09-03T01:58:36;2.50;;;2.30;;
53521;SDS011;39398;48.382;9.802;2022-09-03T01:59:44;3.75;;;2.47;;
53521;SDS011;39398;48.382;9.802;2022-09-03T02:00:53;3.33;;;2.72;;
53521;SDS011;39398;48.382;9.802;2022-09-03T02:02:00;6.50;;;2.75;;
53521;SDS011;39398;48.382;9.802;2022-09-03T02:03:05;5.95;;;2.90;;
53521;SDS011;39398;48.382;9.802;2022-09-03T02:04:15;4.43;;;2.55;;
53521;SDS011;39398;48.382;9.802;2022-09-03T02:05:20;3.08;;;2.60;;
53521;SDS011;39398;48.382;9.802;2022-09-03T02:06:24;4.55;;;3.17;;
53521;SDS011;39398;48.382;9.802;2022-09-03T02:07:26;4.55;;;2.85;;
53521;SDS011;39398;48.382;9.802;2022-09-03T02:08:32;5.85;;;2.72;;
53521;SDS011;39398;48.382;9.802;2022-09-03T02:09:34;3.00;;;2.67;;
53521;SDS011;39398;48.382;9.802;2022-09-03T02:10:37;6.55;;;2.75;;
53521;SDS011;39398;48.382;9.802;2022-09-03T02:11:42;3.38;;;2.47;;
53521;SDS011;39398;48.382;9.802;2022-09-03T02:12:47;5.80;;;3.00;;
53521;SDS011;39398;48.382;9.802;2022-09-03T02:13:54;3.35;;;2.90;;
53521;SDS011;39398;48.382;9.802;2022-09-03T02:14:58;4.15;;;2.90;;
53521;SDS011;39398;48.382;9.802;2022-09-03T02:16:02;4.20;;;3.17;;
53521;SDS011;39398;48.382;9.802;2022-09-03T02:17:11;2.90;;;2.70;;
53521;SDS011;39398;48.382;9.802;2022-09-03T02:18:14;3.58;;;3.05;;
53521;SDS011;39398;48.382;9.802;2022-09-03T02:19:18;4.00;;;3.08;;
53521;SDS011;39398;48.382;9.802;2022-09-03T02:20:21;5.25;;;2.80;;
53521;SDS011;39398;48.382;9.802;2022-09-03T02:21:26;4.45;;;3.33;;
53521;SDS011;39398;48.382;9.802;2022-09-03T02:22:32;4.22;;;3.17;;
53521;SDS011;39398;48.382;9.802;2022-09-03T02:23:34;3.35;;;2.90;;
53521;SDS011;39398;48.382;9.802;2022-09-03T02:24:38;4.22;;;2.85;;
53521;SDS011;39398;48.382;9.802;2022-09-03T02:25:43;3.45;;;2.83;;
53521;SDS011;39398;48.382;9.802;2022-09-03T02:26:48;4.47;;;2.92;;
53521;SDS011;39398;48.382;9.802;2022-09-03T02:27:49;4.22;;;3.00;;
53521;SDS011;39398;48.382;9.802;2022-09-03T02:28:52;6.10;;;2.83;;
53521;SDS011;39398;48.382;9.802;2022-09-03T02:29:55;3.97;;;2.97;;
53521;SDS011;39398;48.382;9.802;2022-09-03T02:30:58;3.80;;;3.40;;
53521;SDS011;39398;48.382;9.802;2022-09-03T02:32:00;3.53;;;3.22;;
53521;SDS011;39398;48.382;9.802;2022-09-03T02:33:02;3.25;;;2.92;;
53521;SDS011;39398;48.382;9.802;2022-09-03T02:34:03;3.65;;;3.15;;
53521;SDS011;39398;48.382;9.802;2022-09-03T02:35:05;6.10;;;3.03;;
53521;SDS011;39398;48.382;9.802;2022-09-03T02:36:08;4.88;;;3.30;;
53521;SDS011;39398;48.382;9.802;2022-09-03T02:37:12;4.05;;;3.17;;
53521;SDS011;39398;48.382;9.802;2022-09-03T02:38:15;4.75;;;3.45;;
53521;SDS011;39398;48.382;9.802;2022-09-03T02:39:18;3.30;;;3.00;;
53521;SDS011;39398;48.382;9.802;2022-09-03T02:40:20;5.35;;;2.97;;
53521;SDS011;39398;48.382;9.802;2022-09-03T02:41:22;4.85;;;3.00;;
53521;SDS011;39398;48.382;9.802;2022-09-03T02:42:23;3.45;;;3.10;;
53521;SDS011;39398;48.382;9.802;2022-09-03T02:43:26;4.65;;;3.05;;
53521;SDS011;39398;48.382;9.802;2022-09-03T02:44:35;4.70;;;3.00;;
53521;SDS011;39398;48.382;9.802;2022-09-03T02:45:42;3.90;;;3.20;;
53521;SDS011;39398;48.382;9.802;2022-09-03T02:46:49;7.53;;;3.30;;
53521;SDS011;39398;48.382;9.802;2022-09-03T02:47:55;3.95;;;3.05;;
53521;SDS011;39398;48.382;9.802;2022-09-03T02:48:59;3.38;;;3.00;;
53521;SDS011;39398;48.382;9.802;2022-09-03T02:50:01;5.60;;;2.53;;
53521;SDS011;39398;48.382;9.802;2022-09-03T02:51:02;4.57;;;3.22;;
53521;SDS011;39398;48.382;9.802;2022-09-03T02:52:14;3.33;;;2.70;;
53521;SDS011;39398;48.382;9.802;2022-09-03T02:53:16;3.65;;;2.80;;
53521;SDS011;39398;48.382;9.802;2022-09-03T02:54:18;5.57;;;2.90;;
53521;SDS011;39398;48.382;9.802;2022-09-03T02:55:21;6.00;;;3.13;;
53521;SDS011;39398;48.382;9.802;2022-09-03T02:56:23;5.45;;;3.00;;
53521;SDS011;39398;48.382;9.802;2022-09-03T02:57:24;4.65;;;3.00;;
53521;SDS011;39398;48.382;9.802;2022-09-03T02:58:28;5.10;;;3.22;;
53521;SDS011;39398;48.382;9.802;2022-09-03T02:59:30;4.55;;;3.38;;
53521;SDS011;39398;48.382;9.802;2022-09-03T03:00:31;5.05;;;3.15;;
53521;SDS011;39398;48.382;9.802;2022-09-03T03:01:33;4.57;;;3.00;;
53521;SDS011;39398;48.382;9.802;2022-09-03T03:02:38;6.00;;;3.40;;
53521;SDS011;39398;48.382;9.802;2022-09-03T03:03:40;7.55;;;3.08;;
53521;SDS011;39398;48.382;9.802;2022-09-03T03:04:41;3.78;;;3.00;;
53521;SDS011;39398;48.382;9.802;2022-09-03T03:05:43;4.63;;;3.17;;
53521;SDS011;39398;48.382;9.802;2022-09-03T03:06:48;3.88;;;3.30;;
53521;SDS011;39398;48.382;9.802;2022-09-03T03:07:50;4.53;;;3.20;;
53521;SDS011;39398;48.382;9.802;2022-09-03T03:08:51;5.38;;;3.10;;
53521;SDS011;39398;48.382;9.802;2022-09-03T03:09:53;3.72;;;3.15;;
53521;SDS011;39398;48.382;9.802;2022-09-03T03:10:55;3.10;;;2.80;;
53521;SDS011;39398;48.382;9.802;2022-09-03T03:11:58;3.88;;;3.22;;
53521;SDS011;39398;48.382;9.802;2022-09-03T03:12:59;3.05;;;2.85;;
53521;SDS011;39398;48.382;9.802;2022-09-03T03:14:01;4.78;;;2.95;;
53521;SDS011;39398;48.382;9.802;2022-09-03T03:15:03;5.65;;;3.20;;
53521;SDS011;39398;48.382;9.802;2022-09-03T03:16:05;4.03;;;3.00;;
53521;SDS011;39398;48.382;9.802;2022-09-03T03:17:06;6.25;;;3.20;;
53521;SDS011;39398;48.382;9.802;2022-09-03T03:18:09;5.57;;;3.28;;
53521;SDS011;39398;48.382;9.802;2022-09-03T03:19:11;3.65;;;3.10;;
53521;SDS011;39398;48.382;9.802;2022-09-03T03:20:13;3.85;;;2.90;;
53521;SDS011;39398;48.382;9.802;2022-09-03T03:21:15;4.85;;;3.47;;
53521;SDS011;39398;48.382;9.802;2022-09-03T03:22:18;4.65;;;3.17;;
53521;SDS011;39398;48.382;9.802;2022-09-03T03:23:20;3.95;;;2.90;;
53521;SDS011;39398;48.382;9.802;2022-09-03T03:24:22;4.63;;;2.90;;
53521;SDS011;39398;48.382;9.802;2022-09-03T03:25:23;3.65;;;2.95;;
53521;SDS011;39398;48.382;9.802;2022-09-03T03:26:25;3.65;;;2.97;;
53521;SDS011;39398;48.382;9.802;2022-09-03T03:27:28;3.95;;;3.20;;
53521;SDS011;39398;48.382;9.802;2022-09-03T03:28:29;5.03;;;3.30;;
53521;SDS011;39398;48.382;9.802;2022-09-03T03:29:31;3.75;;;3.15;;
53521;SDS011;39398;48.382;9.802;2022-09-03T03:30:33;4.35;;;3.00;;
53521;SDS011;39398;48.382;9.802;2022-09-03T03:31:37;5.25;;;2.65;;
53521;SDS011;39398;48.382;9.802;2022-09-03T03:32:39;4.07;;;2.55;;
53521;SDS011;39398;48.382;9.802;2022-09-03T03:33:42;4.28;;;3.05;;
53521;SDS011;39398;48.382;9.802;2022-09-03T03:34:43;4.28;;;3.00;;
53521;SDS011;39398;48.382;9.802;2022-09-03T03:35:45;5.80;;;3.22;;
53521;SDS011;39398;48.382;9.802;2022-09-03T03:36:47;3.40;;;3.10;;
53521;SDS011;39398;48.382;9.802;2022-09-03T03:37:48;3.50;;;2.80;;
53521;SDS011;39398;48.382;9.802;2022-09-03T03:38:52;3.97;;;3.40;;
53521;SDS011;39398;48.382;9.802;2022-09-03T03:39:53;4.20;;;3.17;;
53521;SDS011;39398;48.382;9.802;2022-09-03T03:40:55;6.95;;;3.65;;
53521;SDS011;39398;48.382;9.802;2022-09-03T03:41:57;5.22;;;3.33;;
53521;SDS011;39398;48.382;9.802;2022-09-03T03:42:58;7.40;;;3.25;;
53521;SDS011;39398;48.382;9.802;2022-09-03T03:44:00;4.53;;;3.00;;
53521;SDS011;39398;48.382;9.802;2022-09-03T03:45:03;4.30;;;3.17;;
53521;SDS011;39398;48.382;9.802;2022-09-03T03:46:06;6.03;;;3.35;;
53521;SDS011;39398;48.382;9.802;2022-09-03T03:47:08;3.90;;;3.22;;
53521;SDS011;39398;48.382;9.802;2022-09-03T03:48:09;8.80;;;3.28;;
53521;SDS011;39398;48.382;9.802;2022-09-03T03:49:12;4.80;;;3.17;;
53521;SDS011;39398;48.382;9.802;2022-09-03T03:50:14;5.20;;;3.20;;
53521;SDS011;39398;48.382;9.802;2022-09-03T03:51:15;3.88;;;3.10;;
53521;SDS011;39398;48.382;9.802;2022-09-03T03:52:17;4.50;;;3.20;;
53521;SDS011;39398;48.382;9.802;2022-09-03T03:53:19;6.45;;;3.33;;
53521;SDS011;39398;48.382;9.802;2022-09-03T03:54:20;3.67;;;3.10;;
53521;SDS011;39398;48.382;9.802;2022-09-03T03:55:22;4.13;;;3.10;;
53521;SDS011;39398;48.382;9.802;2022-09-03T03:56:27;5.57;;;3.15;;
53521;SDS011;39398;48.382;9.802;2022-09-03T03:57:29;7.70;;;3.22;;
53521;SDS011;39398;48.382;9.802;2022-09-03T03:58:31;4.97;;;3.10;;
53521;SDS011;39398;48.382;9.802;2022-09-03T03:59:34;7.55;;;3.35;;
53521;SDS011;39398;48.382;9.802;2022-09-03T04:00:36;5.13;;;3.22;;
53521;SDS011;39398;48.382;9.802;2022-09-03T04:01:37;5.75;;;3.00;;
53521;SDS011;39398;48.382;9.802;2022-09-03T04:02:39;6.97;;;3.08;;
53521;SDS011;39398;48.382;9.802;2022-09-03T04:03:40;4.38;;;3.55;;
53521;SDS011;39398;48.382;9.802;2022-09-03T04:04:43;4.70;;;3.40;;
53521;SDS011;39398;48.382;9.802;2022-09-03T04:05:53;6.18;;;3.50;;
53521;SDS011;39398;48.382;9.802;2022-09-03T04:06:55;6.50;;;3.35;;
53521;SDS011;39398;48.382;9.802;2022-09-03T04:07:59;6.28;;;3.50;;
53521;SDS011;39398;48.382;9.802;2022-09-03T04:09:01;7.68;;;3.30;;
53521;SDS011;39398;48.382;9.802;2022-09-03T04:10:03;4.78;;;3.22;;
53521;SDS011;39398;48.382;9.802;2022-09-03T04:11:05;4.53;;;3.20;;
53521;SDS011;39398;48.382;9.802;2022-09-03T04:12:08;6.70;;;3.40;;
53521;SDS011;39398;48.382;9.802;2022-09-03T04:13:10;3.83;;;3.42;;
53521;SDS011;39398;48.382;9.802;2022-09-03T04:14:11;4.72;;;3.58;;
53521;SDS011;39398;48.382;9.802;2022-09-03T04:15:13;6.18;;;3.90;;
53521;SDS011;39398;48.382;9.802;2022-09-03T04:16:15;5.05;;;3.33;;
53521;SDS011;39398;48.382;9.802;2022-09-03T04:17:18;4.88;;;4.03;;
53521;SDS011;39398;48.382;9.802;2022-09-03T04:18:25;8.95;;;3.90;;
53521;SDS011;39398;48.382;9.802;2022-09-03T04:19:26;8.90;;;3.72;;
53521;SDS011;39398;48.382;9.802;2022-09-03T04:20:29;5.95;;;3.80;;
53521;SDS011;39398;48.382;9.802;2022-09-03T04:21:31;5.50;;;3.53;;
53521;SDS011;39398;48.382;9.802;2022-09-03T04:22:32;11.32;;;3.65;;
53521;SDS011;39398;48.382;9.802;2022-09-03T04:23:34;6.90;;;3.45;;
53521;SDS011;39398;48.382;9.802;2022-09-03T04:24:37;5.53;;;3.58;;
53521;SDS011;39398;48.382;9.802;2022-09-03T04:25:39;5.60;;;3.38;;
53521;SDS011;39398;48.382;9.802;2022-09-03T04:26:40;9.57;;;3.85;;
53521;SDS011;39398;48.382;9.802;2022-09-03T04:27:42;5.60;;;3.50;;
53521;SDS011;39398;48.382;9.802;2022-09-03T04:28:43;4.63;;;3.88;;
53521;SDS011;39398;48.382;9.802;2022-09-03T04:29:45;5.63;;;3.72;;
53521;SDS011;39398;48.382;9.802;2022-09-03T04:30:47;4.32;;;3.50;;
53521;SDS011;39398;48.382;9.802;2022-09-03T04:31:49;7.95;;;3.38;;
53521;SDS011;39398;48.382;9.802;2022-09-03T04:32:51;7.40;;;3.90;;
53521;SDS011;39398;48.382;9.802;2022-09-03T04:33:52;6.47;;;4.30;;
53521;SDS011;39398;48.382;9.802;2022-09-03T04:34:54;6.47;;;3.55;;
53521;SDS011;39398;48.382;9.802;2022-09-03T04:36:04;5.28;;;3.70;;
53521;SDS011;39398;48.382;9.802;2022-09-03T04:37:08;6.53;;;3.90;;
53521;SDS011;39398;48.382;9.802;2022-09-03T04:38:09;4.63;;;4.22;;
53521;SDS011;39398;48.382;9.802;2022-09-03T04:39:11;4.00;;;3.60;;
53521;SDS011;39398;48.382;9.802;2022-09-03T04:40:13;7.97;;;4.20;;
53521;SDS011;39398;48.382;9.802;2022-09-03T04:41:15;5.18;;;3.78;;
53521;SDS011;39398;48.382;9.802;2022-09-03T04:42:18;4.50;;;4.07;;
53521;SDS011;39398;48.382;9.802;2022-09-03T04:43:19;5.53;;;3.67;;
53521;SDS011;39398;48.382;9.802;2022-09-03T04:44:21;6.35;;;3.80;;
53521;SDS011;39398;48.382;9.802;2022-09-03T04:45:22;5.88;;;4.00;;
53521;SDS011;39398;48.382;9.802;2022-09-03T04:46:25;4.80;;;3.90;;
53521;SDS011;39398;48.382;9.802;2022-09-03T04:47:27;4.53;;;4.13;;
53521;SDS011;39398;48.382;9.802;2022-09-03T04:48:29;4.93;;;3.95;;
53521;SDS011;39398;48.382;9.802;2022-09-03T04:49:32;5.03;;;3.45;;
53521;SDS011;39398;48.382;9.802;2022-09-03T04:50:33;3.78;;;3.38;;
53521;SDS011;39398;48.382;9.802;2022-09-03T04:51:36;4.82;;;3.58;;
53521;SDS011;39398;48.382;9.802;2022-09-03T04:52:39;5.50;;;3.75;;
53521;SDS011;39398;48.382;9.802;2022-09-03T04:53:41;4.82;;;3.67;;
53521;SDS011;39398;48.382;9.802;2022-09-03T04:54:44;4.60;;;3.30;;
53521;SDS011;39398;48.382;9.802;2022-09-03T04:55:45;5.30;;;3.92;;
53521;SDS011;39398;48.382;9.802;2022-09-03T04:56:47;4.82;;;4.30;;
53521;SDS011;39398;48.382;9.802;2022-09-03T04:57:48;5.22;;;4.38;;
53521;SDS011;39398;48.382;9.802;2022-09-03T04:58:53;5.28;;;3.72;;
53521;SDS011;39398;48.382;9.802;2022-09-03T04:59:55;5.03;;;4.10;;
53521;SDS011;39398;48.382;9.802;2022-09-03T05:00:57;6.43;;;3.85;;
53521;SDS011;39398;48.382;9.802;2022-09-03T05:01:59;7.65;;;4.68;;
53521;SDS011;39398;48.382;9.802;2022-09-03T05:03:00;6.72;;;4.25;;
53521;SDS011;39398;48.382;9.802;2022-09-03T05:04:02;6.35;;;4.43;;
53521;SDS011;39398;48.382;9.802;2022-09-03T05:05:04;4.53;;;4.13;;
53521;SDS011;39398;48.382;9.802;2022-09-03T05:06:06;7.25;;;4.60;;
53521;SDS011;39398;48.382;9.802;2022-09-03T05:07:09;4.88;;;4.25;;
53521;SDS011;39398;48.382;9.802;2022-09-03T05:08:10;6.28;;;4.25;;
53521;SDS011;39398;48.382;9.802;2022-09-03T05:09:12;4.72;;;4.22;;
53521;SDS011;39398;48.382;9.802;2022-09-03T05:10:13;5.50;;;3.80;;
53521;SDS011;39398;48.382;9.802;2022-09-03T05:11:15;5.72;;;3.63;;
53521;SDS011;39398;48.382;9.802;2022-09-03T05:12:17;4.75;;;3.70;;
53521;SDS011;39398;48.382;9.802;2022-09-03T05:13:18;3.47;;;3.03;;
53521;SDS011;39398;48.382;9.802;2022-09-03T05:14:20;5.25;;;3.60;;
53521;SDS011;39398;48.382;9.802;2022-09-03T05:15:21;5.07;;;3.53;;
53521;SDS011;39398;48.382;9.802;2022-09-03T05:16:23;6.25;;;3.83;;
53521;SDS011;39398;48.382;9.802;2022-09-03T05:17:26;5.45;;;3.90;;
53521;SDS011;39398;48.382;9.802;2022-09-03T05:18:28;4.35;;;3.70;;
53521;SDS011;39398;48.382;9.802;2022-09-03T05:19:30;4.38;;;3.63;;
53521;SDS011;39398;48.382;9.802;2022-09-03T05:20:31;4.10;;;3.47;;
53521;SDS011;39398;48.382;9.802;2022-09-03T05:21:33;5.18;;;3.50;;
53521;SDS011;39398;48.382;9.802;2022-09-03T05:22:37;5.72;;;3.60;;
53521;SDS011;39398;48.382;9.802;2022-09-03T05:23:38;4.82;;;3.67;;
53521;SDS011;39398;48.382;9.802;2022-09-03T05:24:41;4.03;;;3.45;;
53521;SDS011;39398;48.382;9.802;2022-09-03T05:25:42;3.80;;;3.50;;
53521;SDS011;39398;48.382;9.802;2022-09-03T05:26:44;3.85;;;3.45;;
53521;SDS011;39398;48.382;9.802;2022-09-03T05:27:45;3.72;;;3.40;;
53521;SDS011;39398;48.382;9.802;2022-09-03T05:28:47;5.32;;;3.40;;
53521;SDS011;39398;48.382;9.802;2022-09-03T05:29:52;4.80;;;3.42;;
53521;SDS011;39398;48.382;9.802;2022-09-03T05:30:57;7.13;;;3.70;;
53521;SDS011;39398;48.382;9.802;2022-09-03T05:31:59;9.02;;;4.10;;
53521;SDS011;39398;48.382;9.802;2022-09-03T05:33:01;4.85;;;4.07;;
53521;SDS011;39398;48.382;9.802;2022-09-03T05:34:03;5.18;;;4.05;;
53521;SDS011;39398;48.382;9.802;2022-09-03T05:35:05;4.60;;;4.20;;
53521;SDS011;39398;48.382;9.802;2022-09-03T05:36:09;4.75;;;4.05;;
53521;SDS011;39398;48.382;9.802;2022-09-03T05:37:12;4.32;;;3.92;;
53521;SDS011;39398;48.382;9.802;2022-09-03T05:38:15;5.68;;;4.10;;
53521;SDS011;39398;48.382;9.802;2022-09-03T05:39:16;5.60;;;3.90;;
53521;SDS011;39398;48.382;9.802;2022-09-03T05:40:18;5.32;;;4.22;;
53521;SDS011;39398;48.382;9.802;2022-09-03T05:41:20;5.30;;;4.03;;
53521;SDS011;39398;48.382;9.802;2022-09-03T05:42:22;4.22;;;3.83;;
53521;SDS011;39398;48.382;9.802;2022-09-03T05:43:24;4.80;;;4.32;;
53521;SDS011;39398;48.382;9.802;2022-09-03T05:44:25;6.68;;;4.28;;
53521;SDS011;39398;48.382;9.802;2022-09-03T05:45:27;4.78;;;4.07;;
53521;SDS011;39398;48.382;9.802;2022-09-03T05:46:29;4.70;;;4.30;;
53521;SDS011;39398;48.382;9.802;2022-09-03T05:47:32;4.85;;;4.30;;
53521;SDS011;39398;48.382;9.802;2022-09-03T05:48:34;6.80;;;4.00;;
53521;SDS011;39398;48.382;9.802;2022-09-03T05:49:37;5.05;;;4.30;;
53521;SDS011;39398;48.382;9.802;2022-09-03T05:50:38;6.25;;;4.30;;
53521;SDS011;39398;48.382;9.802;2022-09-03T05:51:40;7.18;;;4.43;;
53521;SDS011;39398;48.382;9.802;2022-09-03T05:52:42;5.28;;;4.00;;
53521;SDS011;39398;48.382;9.802;2022-09-03T05:53:45;5.28;;;3.70;;
53521;SDS011;39398;48.382;9.802;2022-09-03T05:54:48;6.75;;;3.95;;
53521;SDS011;39398;48.382;9.802;2022-09-03T05:55:53;8.07;;;4.30;;
53521;SDS011;39398;48.382;9.802;2022-09-03T05:56:55;6.72;;;3.90;;
53521;SDS011;39398;48.382;9.802;2022-09-03T05:57:57;4.88;;;3.70;;
53521;SDS011;39398;48.382;9.802;2022-09-03T05:58:59;6.28;;;3.80;;
53521;SDS011;39398;48.382;9.802;2022-09-03T06:00:02;5.47;;;4.10;;
53521;SDS011;39398;48.382;9.802;2022-09-03T06:01:08;5.03;;;4.32;;
53521;SDS011;39398;48.382;9.802;2022-09-03T06:02:10;5.78;;;4.10;;
53521;SDS011;39398;48.382;9.802;2022-09-03T06:03:12;4.60;;;4.18;;
53521;SDS011;39398;48.382;9.802;2022-09-03T06:04:14;4.80;;;4.00;;
53521;SDS011;39398;48.382;9.802;2022-09-03T06:05:16;4.68;;;4.10;;
53521;SDS011;39398;48.382;9.802;2022-09-03T06:06:18;5.68;;;3.90;;
53521;SDS011;39398;48.382;9.802;2022-09-03T06:07:20;6.53;;;4.13;;
53521;SDS011;39398;48.382;9.802;2022-09-03T06:08:22;5.20;;;4.32;;
53521;SDS011;39398;48.382;9.802;2022-09-03T06:09:25;4.63;;;4.22;;
53521;SDS011;39398;48.382;9.802;2022-09-03T06:10:26;6.47;;;4.35;;
53521;SDS011;39398;48.382;9.802;2022-09-03T06:11:39;5.72;;;4.18;;
53521;SDS011;39398;48.382;9.802;2022-09-03T06:12:42;5.10;;;4.20;;
53521;SDS011;39398;48.382;9.802;2022-09-03T06:13:44;5.32;;;4.07;;
53521;SDS011;39398;48.382;9.802;2022-09-03T06:14:45;5.85;;;4.50;;
53521;SDS011;39398;48.382;9.802;2022-09-03T06:15:46;6.32;;;4.10;;
53521;SDS011;39398;48.382;9.802;2022-09-03T06:16:48;8.43;;;3.92;;
53521;SDS011;39398;48.382;9.802;2022-09-03T06:17:50;10.25;;;4.78;;
53521;SDS011;39398;48.382;9.802;2022-09-03T06:18:51;7.65;;;4.20;;
53521;SDS011;39398;48.382;9.802;2022-09-03T06:19:53;6.70;;;4.25;;
53521;SDS011;39398;48.382;9.802;2022-09-03T06:20:55;4.40;;;4.00;;
53521;SDS011;39398;48.382;9.802;2022-09-03T06:21:57;4.85;;;4.13;;
53521;SDS011;39398;48.382;9.802;2022-09-03T06:22:59;6.38;;;4.50;;
53521;SDS011;39398;48.382;9.802;2022-09-03T06:24:00;4.93;;;4.30;;
53521;SDS011;39398;48.382;9.802;2022-09-03T06:25:04;5.47;;;4.30;;
53521;SDS011;39398;48.382;9.802;2022-09-03T06:26:07;4.72;;;4.22;;
53521;SDS011;39398;48.382;9.802;2022-09-03T06:27:10;4.85;;;4.20;;
53521;SDS011;39398;48.382;9.802;2022-09-03T06:28:12;4.40;;;4.00;;
53521;SDS011;39398;48.382;9.802;2022-09-03T06:29:13;6.35;;;4.25;;
53521;SDS011;39398;48.382;9.802;2022-09-03T06:30:16;5.18;;;4.68;;
53521;SDS011;39398;48.382;9.802;2022-09-03T06:31:18;5.63;;;4.43;;
53521;SDS011;39398;48.382;9.802;2022-09-03T06:32:19;4.47;;;4.07;;
53521;SDS011;39398;48.382;9.802;2022-09-03T06:33:21;5.22;;;4.72;;
53521;SDS011;39398;48.382;9.802;2022-09-03T06:34:22;6.93;;;4.70;;